Αρχική σελίδα
METAR-TAF:

METAR-TAF

Αεροδρόμια :

Όσλο, Νορβηγία

γεωγραφικό πλάτος: 60-12N, γεωγραφικό μήκος: 011-05E, υψόμετρο: 208 μ

Παρών καιρός

Η αναφορά έγινε 17 λεπτά πριν, στις 18:50 UTC
Άνεμος 2 kt από μεταβλητές κατευθύνσεις
Θερμοκρασία 0°C
Υγρασία 93%
Πίεση 1041 hPa
Ορατότητα: 9000 μ
Διάσπαρτα νέφη σε ύψος 300 πόδια

METAR: ENGM 181850Z VRB02KT 9999 9000N SCT003 M00/M01 Q1041 TEMPO BKN003

Χρόνος: 20:07 (19:07 UTC)

Πρόγνωση Καιρού

Η πρόγνωση ισχύει από τις 18 στις 18 UTC έως τις 19 στις 18 UTC
Άνεμος 5 kt από Β/BA
Ορατότητα 10 χλμ και άνω
Λίγα νέφη σε ύψος 500 πόδια
Προσωρινά
από 18 στις 18 UTC έως τις 18 στις 24 UTC
Αρκετά νέφη σε ύψος 200 πόδια
Πιθανότητα 40%
από 19 στις 00 UTC έως τις 19 στις 09 UTC
Ορατότητα: 0500 μ
σε ύψος 100 πόδια
παγωμένη ομίχλη

TAF: ENGM 1818/1918 03005KT 9999 FEW005 TEMPO 1818/1824 BKN002 PROB40 1900/1909 0500 FZFG VV001

Μετεωρολογικές αναφορές και προγνώσεις για περισσότερα από 4000 αεροδρόμια (δελτία METAR και TAF).

Οι διαθέσιμοι σταθμοί απεικονίζονται στο χάρτη με κίτρινες και κόκκινες κουκκίδες.

Μετακινήστε το ποντίκι πάνω από τις κουκκίδες για να δείτε το όνομα του σταθμού.

Στη συνέχεια, κάντε κλικ για να δείτε τις μετεωρολογικές αναφορές και τις προγνώσεις καιρού.

Για να αλλάξετε το χάρτη: κάντε κλικ στα πράσινα κουμπιά με τον μαύρο σταυρό για να ζουμάρετε, στο πράσινο κουμπί με την παύλα για να αφαιρέσετε το ζουμ ή στα πράσινα βέλη για να αντιπαραβάλλετε χάρτες.


METAR-TAF: